Strona główna
METAR-TAF:

METAR-TAF

Lotnisko :

Nowy Jork, Nowy Jork, Stany Zjednoczone

Szerokość geograficzna: 40-42-04N, Długość geograficzna: 074-00-32W, wysokość: 2 m

Aktualna obserwacja pogody

Raport powstał 1 godzina i 4 minut temu, godzina 13:56 UTC
Wiatr 8 kt od zachód w porywach dochodzący do 14 kt
Temperatura 7°C
Wilgotność 66%
Ciśnienie 1022 hPa
Widzialność: 16.1 km
Mało chmury na wysokości 4900 ft

METAR: KJRB 171356Z AUTO 26008G14KT 10SM FEW049 07/01 A3017 RMK AO2 SLP218 T00670011

czas: 10:00 (15:00 UTC)


TAF: brakujący

Obserwacja i prognoza pogody dla ponad 4000 lotnisk (raport METAR i TAF).

Dostępne stacje oznaczono żółtymi i czerwonymi punktami na mapie.

Najedź kursorem aby zobaczyć nazwę stacji.

Kliknij aby zobaczyć obserwacje i prognozy pogody.

Aby zmienić mapę: kliknij na zielony przycisk z czarnym krzyżykiem, aby powiększyć; na zielony przycisk z myślnikiem, aby pomniejszyć; na zielone strzałki, aby przejść do map sąsiednich.


METAR-TAF: